createdAt,value
2023-01-10T00:00:26.824Z,3.19
2023-01-10T00:02:53.721Z,3.21
2023-01-10T00:05:20.619Z,3.21
2023-01-10T00:07:47.486Z,3.24
2023-01-10T00:10:14.285Z,3.33
2023-01-10T00:12:59.438Z,3.42
2023-01-10T00:15:26.231Z,3.48
2023-01-10T00:17:53.109Z,3.55
2023-01-10T00:20:20.005Z,3.59
2023-01-10T00:22:47.010Z,3.67
2023-01-10T00:25:13.945Z,3.65
2023-01-10T00:27:40.737Z,3.73
2023-01-10T00:30:17.192Z,3.72
2023-01-10T00:32:44.627Z,3.75
2023-01-10T00:35:12.168Z,3.73
2023-01-10T00:37:39.597Z,3.80
2023-01-10T00:40:10.493Z,3.81
2023-01-10T00:42:55.754Z,3.78
2023-01-10T00:45:24.768Z,3.83
2023-01-10T00:47:52.017Z,3.77
2023-01-10T00:50:19.051Z,3.78
2023-01-10T00:52:45.892Z,3.81
2023-01-10T00:55:12.754Z,3.77
2023-01-10T00:57:39.539Z,3.75
2023-01-10T01:00:09.326Z,3.69
2023-01-10T01:02:36.384Z,3.71
2023-01-10T01:05:04.091Z,3.71
2023-01-10T01:07:30.903Z,3.68
2023-01-10T01:10:16.217Z,3.65
2023-01-10T01:12:43.018Z,3.60
2023-01-10T01:15:10.066Z,3.53
2023-01-10T01:17:36.934Z,3.51
2023-01-10T01:20:04.280Z,3.47
2023-01-10T01:22:31.076Z,3.44
2023-01-10T01:24:57.888Z,3.45
2023-01-10T01:27:24.710Z,3.43
2023-01-10T01:29:51.511Z,3.44
2023-01-10T01:32:18.990Z,3.37
2023-01-10T01:34:45.921Z,3.37
2023-01-10T01:37:12.690Z,3.30
2023-01-10T01:39:40.719Z,3.26
2023-01-10T01:42:12.428Z,3.24
2023-01-10T01:44:39.712Z,3.25
2023-01-10T01:47:26.115Z,3.26
2023-01-10T01:49:52.893Z,3.27
2023-01-10T01:52:23.311Z,3.26
2023-01-10T01:54:50.134Z,3.20
2023-01-10T01:57:18.874Z,3.27
2023-01-10T01:59:46.843Z,3.27
2023-01-10T02:02:22.422Z,3.29
2023-01-10T02:05:03.967Z,3.28
2023-01-10T02:07:34.053Z,3.22
2023-01-10T02:10:01.722Z,3.17
2023-01-10T02:12:29.218Z,3.07
2023-01-10T02:14:56.048Z,2.92
2023-01-10T02:17:22.831Z,2.80
2023-01-10T02:20:09.780Z,2.75
2023-01-10T02:23:26.252Z,2.66
2023-01-10T02:26:14.690Z,2.65
2023-01-10T02:28:45.958Z,2.62
2023-01-10T02:31:34.790Z,2.62
2023-01-10T02:34:10.631Z,2.63
2023-01-10T02:36:37.399Z,2.62
2023-01-10T02:39:41.350Z,2.63
2023-01-10T02:42:09.661Z,2.68
2023-01-10T02:44:58.373Z,2.75
2023-01-10T02:47:25.170Z,2.77
2023-01-10T02:49:52.299Z,2.80
2023-01-10T02:52:24.263Z,2.90
2023-01-10T02:54:56.268Z,2.91
2023-01-10T02:57:32.128Z,2.97
2023-01-10T03:00:27.673Z,2.99
2023-01-10T03:03:13.050Z,2.99
2023-01-10T03:06:17.186Z,2.87
2023-01-10T03:08:51.039Z,2.66
2023-01-10T03:11:37.789Z,2.43
2023-01-10T03:14:04.572Z,2.15
2023-01-10T03:16:31.386Z,1.88
2023-01-10T03:19:07.745Z,1.74
2023-01-10T03:21:34.668Z,1.67
2023-01-10T03:24:12.949Z,1.67
2023-01-10T03:26:49.505Z,1.72
2023-01-10T03:29:21.248Z,1.81
2023-01-10T03:31:51.148Z,1.83
2023-01-10T03:34:17.929Z,1.96
2023-01-10T03:37:14.777Z,2.04
2023-01-10T03:39:48.911Z,2.04
2023-01-10T03:42:15.611Z,2.10
2023-01-10T03:45:07.511Z,2.08
2023-01-10T03:47:37.966Z,2.01
2023-01-10T03:50:09.050Z,2.00
2023-01-10T03:52:35.827Z,1.88
2023-01-10T03:55:03.527Z,1.80
2023-01-10T03:57:30.361Z,1.73
2023-01-10T03:59:58.189Z,1.63
2023-01-10T04:02:30.747Z,1.56
2023-01-10T04:04:58.981Z,1.57
2023-01-10T04:07:25.996Z,1.61
2023-01-10T04:09:52.907Z,1.60
2023-01-10T04:12:19.696Z,1.74
2023-01-10T04:14:47.254Z,1.79
2023-01-10T04:17:15.018Z,1.87
2023-01-10T04:19:42.090Z,1.97
2023-01-10T04:22:09.534Z,2.06
2023-01-10T04:24:36.503Z,2.14
2023-01-10T04:27:03.415Z,2.21
2023-01-10T04:29:30.212Z,2.24
2023-01-10T04:31:57.072Z,2.33
2023-01-10T04:34:23.910Z,2.38
2023-01-10T04:36:50.846Z,2.41
2023-01-10T04:39:17.714Z,2.41
2023-01-10T04:41:44.527Z,2.41
2023-01-10T04:44:11.516Z,2.41
2023-01-10T04:46:38.311Z,2.48
2023-01-10T04:49:05.586Z,2.51
2023-01-10T04:51:32.368Z,2.53
2023-01-10T04:53:59.553Z,2.55
2023-01-10T04:56:26.391Z,2.62
2023-01-10T04:58:54.181Z,2.65
2023-01-10T05:01:25.778Z,2.63
2023-01-10T05:03:54.814Z,2.65
2023-01-10T05:06:21.913Z,2.72
2023-01-10T05:08:48.766Z,2.74
2023-01-10T05:11:15.581Z,2.74
2023-01-10T05:13:42.432Z,2.77
2023-01-10T05:16:09.284Z,2.71
2023-01-10T05:18:36.149Z,2.78
2023-01-10T05:21:07.310Z,2.76
2023-01-10T05:23:34.214Z,2.74
2023-01-10T05:26:08.561Z,2.79
2023-01-10T05:28:35.363Z,2.78
2023-01-10T05:31:02.286Z,2.78
2023-01-10T05:33:29.313Z,2.81
2023-01-10T05:35:56.073Z,2.83
2023-01-10T05:38:22.887Z,2.81
2023-01-10T05:40:55.334Z,2.80
2023-01-10T05:43:22.308Z,2.86
2023-01-10T05:45:49.106Z,2.82
2023-01-10T05:48:15.959Z,2.79
2023-01-10T05:50:42.727Z,2.81
2023-01-10T05:53:09.589Z,2.78
2023-01-10T05:55:36.395Z,2.79
2023-01-10T05:58:03.331Z,2.80
2023-01-10T06:00:30.167Z,2.76
2023-01-10T06:02:57.347Z,2.75
2023-01-10T06:05:24.511Z,2.70
2023-01-10T06:07:51.528Z,2.69
2023-01-10T06:10:18.528Z,2.69
2023-01-10T06:12:45.314Z,2.71
2023-01-10T06:15:12.186Z,2.71
2023-01-10T06:17:38.976Z,2.69
2023-01-10T06:20:06.444Z,2.69
2023-01-10T06:22:33.260Z,2.71
2023-01-10T06:25:02.383Z,2.66
2023-01-10T06:27:29.485Z,2.66
2023-01-10T06:29:56.927Z,2.63
2023-01-10T06:32:23.708Z,2.65
2023-01-10T06:34:50.503Z,2.60
2023-01-10T06:37:20.006Z,2.54
2023-01-10T06:39:47.094Z,2.51
2023-01-10T06:42:14.300Z,2.45
2023-01-10T06:44:41.211Z,2.42
2023-01-10T06:47:08.056Z,2.38
2023-01-10T06:49:34.875Z,2.31
2023-01-10T06:52:01.647Z,2.29
2023-01-10T06:54:28.517Z,2.25
2023-01-10T06:56:55.303Z,2.16
2023-01-10T06:59:22.098Z,2.13
2023-01-10T07:01:49.068Z,2.15
2023-01-10T07:04:16.058Z,2.11
2023-01-10T07:06:43.096Z,2.13
2023-01-10T07:09:10.069Z,2.06
2023-01-10T07:11:36.916Z,2.02
2023-01-10T07:14:03.769Z,1.98
2023-01-10T07:16:30.634Z,1.98
2023-01-10T07:18:58.353Z,1.89
2023-01-10T07:21:25.169Z,1.81
2023-01-10T07:23:51.931Z,1.79
2023-01-10T07:26:19.268Z,1.70
2023-01-10T07:28:50.924Z,1.70
2023-01-10T07:31:18.987Z,1.63
2023-01-10T07:33:45.877Z,1.65
2023-01-10T07:36:12.699Z,1.63
2023-01-10T07:38:39.487Z,1.73
2023-01-10T07:41:06.497Z,1.76
2023-01-10T07:43:33.445Z,1.81
2023-01-10T07:46:01.237Z,1.86
2023-01-10T07:48:28.153Z,1.89
2023-01-10T07:50:58.528Z,1.85
2023-01-10T07:53:25.868Z,1.97
2023-01-10T07:55:52.768Z,2.02
2023-01-10T07:58:19.648Z,2.08
2023-01-10T08:00:46.516Z,2.17
2023-01-10T08:03:13.695Z,2.21
2023-01-10T08:05:40.599Z,2.30
2023-01-10T08:08:08.250Z,2.31
2023-01-10T08:10:35.505Z,2.35
2023-01-10T08:13:17.204Z,2.33
2023-01-10T08:15:47.347Z,2.39
2023-01-10T08:18:14.349Z,2.44
2023-01-10T08:20:41.452Z,2.55
2023-01-10T08:23:08.318Z,2.63
2023-01-10T08:25:35.125Z,2.71
2023-01-10T08:28:01.891Z,2.82
2023-01-10T08:30:29.379Z,2.91
2023-01-10T08:32:56.353Z,3.12
2023-01-10T08:35:23.175Z,3.28
2023-01-10T08:37:50.052Z,3.42
2023-01-10T08:40:16.991Z,3.63
2023-01-10T08:42:43.796Z,3.78
2023-01-10T08:45:10.986Z,3.95
2023-01-10T08:47:37.828Z,4.08
2023-01-10T08:50:07.914Z,4.25
2023-01-10T08:52:35.130Z,4.38
2023-01-10T08:55:01.934Z,4.54
2023-01-10T08:57:28.787Z,4.62
2023-01-10T08:59:55.572Z,4.78
2023-01-10T09:02:22.469Z,4.82
2023-01-10T09:04:49.276Z,5.02
2023-01-10T09:07:16.844Z,5.10
2023-01-10T09:09:43.621Z,5.19
2023-01-10T09:12:29.033Z,5.33
2023-01-10T09:14:55.855Z,5.43
2023-01-10T09:17:22.817Z,5.44
2023-01-10T09:19:49.751Z,5.50
2023-01-10T09:22:16.590Z,5.59
2023-01-10T09:24:44.172Z,5.65
2023-01-10T09:27:11.504Z,5.69
2023-01-10T09:29:38.335Z,5.74
2023-01-10T09:32:05.518Z,5.78
2023-01-10T09:34:32.339Z,5.84
2023-01-10T09:36:59.257Z,5.92
2023-01-10T09:39:28.487Z,5.99
2023-01-10T09:42:02.455Z,6.01
2023-01-10T09:44:44.574Z,6.09
2023-01-10T09:47:48.687Z,6.16
2023-01-10T09:50:15.516Z,6.22
2023-01-10T09:53:09.612Z,6.32
2023-01-10T09:55:37.067Z,6.41
2023-01-10T09:58:27.612Z,6.52
2023-01-10T10:00:56.900Z,6.55
2023-01-10T10:04:02.831Z,6.62
2023-01-10T10:06:29.791Z,6.62
2023-01-10T10:08:56.609Z,6.66
2023-01-10T10:11:26.396Z,6.74
2023-01-10T10:14:11.662Z,6.84
2023-01-10T10:16:56.946Z,6.96
2023-01-10T10:19:35.434Z,7.04
2023-01-10T10:22:07.993Z,7.11
2023-01-10T10:24:47.260Z,7.13
2023-01-10T10:27:32.531Z,7.24
2023-01-10T10:30:18.129Z,7.29
2023-01-10T10:32:57.176Z,7.41
2023-01-10T10:35:31.139Z,7.60
2023-01-10T10:38:19.740Z,7.75
2023-01-10T10:40:46.575Z,7.84
2023-01-10T10:43:25.635Z,7.92
2023-01-10T10:46:14.975Z,8.11
2023-01-10T10:49:07.187Z,8.26
2023-01-10T10:51:45.405Z,8.45
2023-01-10T10:54:13.051Z,8.60
2023-01-10T10:56:39.852Z,8.73
2023-01-10T10:59:06.693Z,8.83
2023-01-10T11:01:33.663Z,8.86
2023-01-10T11:04:10.806Z,8.87
2023-01-10T11:06:38.726Z,8.90
2023-01-10T11:09:05.726Z,8.83
2023-01-10T11:11:43.930Z,8.82
2023-01-10T11:14:10.816Z,8.73
2023-01-10T11:16:39.824Z,8.67
2023-01-10T11:19:25.699Z,8.69
2023-01-10T11:22:02.344Z,8.68
2023-01-10T11:24:31.471Z,8.65
2023-01-10T11:26:59.211Z,8.60
2023-01-10T11:29:33.120Z,8.63
2023-01-10T11:32:00.304Z,8.66
2023-01-10T11:34:31.536Z,8.65
2023-01-10T11:37:06.174Z,8.68
2023-01-10T11:39:33.278Z,8.70
2023-01-10T11:42:33.114Z,8.72
2023-01-10T11:45:18.390Z,8.70
2023-01-10T11:48:05.297Z,8.68
2023-01-10T11:50:33.827Z,8.65
2023-01-10T11:53:00.687Z,8.66
2023-01-10T11:55:29.297Z,8.69
2023-01-10T11:58:04.453Z,8.73
2023-01-10T12:00:37.471Z,8.70
2023-01-10T12:03:14.828Z,8.76
2023-01-10T12:05:41.627Z,8.81
2023-01-10T12:08:11.411Z,8.99
2023-01-10T12:10:38.181Z,9.18
2023-01-10T12:13:14.083Z,9.40
2023-01-10T12:15:41.139Z,9.67
2023-01-10T12:18:08.018Z,9.85
2023-01-10T12:20:45.374Z,10.03
2023-01-10T12:23:15.842Z,10.14
2023-01-10T12:25:43.265Z,10.21
2023-01-10T12:28:18.419Z,10.19
2023-01-10T12:30:50.284Z,10.04
2023-01-10T12:33:20.372Z,9.88
2023-01-10T12:36:02.646Z,9.63
2023-01-10T12:38:51.848Z,9.43
2023-01-10T12:41:49.635Z,9.17
2023-01-10T12:44:19.884Z,8.93
2023-01-10T12:47:06.032Z,8.71
2023-01-10T12:49:36.173Z,8.57
2023-01-10T12:52:10.325Z,8.41
2023-01-10T12:54:37.223Z,8.22
2023-01-10T12:57:09.010Z,8.11
2023-01-10T12:59:38.383Z,8.03
2023-01-10T13:02:16.516Z,7.88
2023-01-10T13:04:43.827Z,7.75
2023-01-10T13:07:13.608Z,7.72
2023-01-10T13:09:41.869Z,7.62
2023-01-10T13:12:22.209Z,7.58
2023-01-10T13:15:04.168Z,7.43
2023-01-10T13:17:33.635Z,7.43
2023-01-10T13:20:20.054Z,7.34
2023-01-10T13:23:10.389Z,7.25
2023-01-10T13:25:38.272Z,7.14
2023-01-10T13:28:16.992Z,7.01
2023-01-10T13:30:44.055Z,6.99
2023-01-10T13:33:36.153Z,6.84
2023-01-10T13:36:35.802Z,6.73
2023-01-10T13:39:04.195Z,6.59
2023-01-10T13:42:15.535Z,6.48
2023-01-10T13:45:01.080Z,6.40
2023-01-10T13:47:40.234Z,6.38
2023-01-10T13:50:25.725Z,6.42
2023-01-10T13:52:53.655Z,6.43
2023-01-10T13:55:30.417Z,6.51
2023-01-10T13:58:12.268Z,6.48
2023-01-10T14:00:57.234Z,6.42
2023-01-10T14:03:47.940Z,6.32
2023-01-10T14:06:28.159Z,6.27
2023-01-10T14:09:02.535Z,6.19
2023-01-10T14:11:50.379Z,6.14
2023-01-10T14:14:23.395Z,6.00
2023-01-10T14:16:52.438Z,5.93
2023-01-10T14:19:28.827Z,5.82
2023-01-10T14:21:56.784Z,5.65
2023-01-10T14:24:36.053Z,5.56
2023-01-10T14:27:02.923Z,5.37
2023-01-10T14:29:32.323Z,5.24
2023-01-10T14:32:00.337Z,5.07
2023-01-10T14:34:31.676Z,4.89
2023-01-10T14:37:00.032Z,4.74
2023-01-10T14:39:27.656Z,4.64
2023-01-10T14:41:57.498Z,4.54
2023-01-10T14:44:38.870Z,4.47
2023-01-10T14:47:05.729Z,4.43
2023-01-10T14:49:48.850Z,4.42
2023-01-10T14:52:20.547Z,4.41
2023-01-10T14:54:47.946Z,4.40
2023-01-10T14:57:22.591Z,4.38
2023-01-10T14:59:50.651Z,4.34
2023-01-10T15:02:25.228Z,4.29
2023-01-10T15:05:25.889Z,4.24
2023-01-10T15:07:53.908Z,4.13
2023-01-10T15:10:32.110Z,4.09
2023-01-10T15:13:01.207Z,4.03
2023-01-10T15:15:31.909Z,3.95
2023-01-10T15:17:59.626Z,3.94
2023-01-10T15:20:26.418Z,3.86
2023-01-10T15:22:58.518Z,3.77
2023-01-10T15:25:30.406Z,3.68
2023-01-10T15:27:57.764Z,3.65
2023-01-10T15:30:28.531Z,3.59
2023-01-10T15:32:57.215Z,3.53
2023-01-10T15:35:35.416Z,3.51
2023-01-10T15:38:07.430Z,3.48
2023-01-10T15:40:38.139Z,3.54
2023-01-10T15:43:30.049Z,3.64
2023-01-10T15:45:57.871Z,3.71
2023-01-10T15:48:25.601Z,3.74
2023-01-10T15:51:16.582Z,3.78
2023-01-10T15:54:28.134Z,3.77
2023-01-10T15:57:06.858Z,3.66
2023-01-10T15:59:41.628Z,3.66
2023-01-10T16:02:24.683Z,3.53
2023-01-10T16:04:55.033Z,3.48
2023-01-10T16:07:31.111Z,3.41
2023-01-10T16:10:07.802Z,3.41
2023-01-10T16:12:57.296Z,3.31
2023-01-10T16:15:26.190Z,3.29
2023-01-10T16:17:53.053Z,3.24
2023-01-10T16:20:21.874Z,3.19
2023-01-10T16:22:49.111Z,3.18
2023-01-10T16:25:17.985Z,3.17
2023-01-10T16:27:44.866Z,3.19
2023-01-10T16:30:22.535Z,3.24
2023-01-10T16:32:49.744Z,3.30
2023-01-10T16:35:20.292Z,3.34
2023-01-10T16:37:47.711Z,3.46
2023-01-10T16:40:41.314Z,3.55
2023-01-10T16:43:26.547Z,3.60
2023-01-10T16:46:00.875Z,3.72
2023-01-10T16:48:28.909Z,3.77
2023-01-10T16:50:55.835Z,3.81
2023-01-10T16:53:22.705Z,3.89
2023-01-10T16:55:51.360Z,3.92
2023-01-10T16:58:18.861Z,3.98
2023-01-10T17:00:47.393Z,4.01
2023-01-10T17:03:21.245Z,4.04
2023-01-10T17:05:48.208Z,4.07
2023-01-10T17:08:19.892Z,4.10
2023-01-10T17:10:48.008Z,4.07
2023-01-10T17:13:17.094Z,4.12
2023-01-10T17:15:43.937Z,4.17
2023-01-10T17:18:10.833Z,4.15
2023-01-10T17:20:37.642Z,4.18
2023-01-10T17:23:04.444Z,4.19
2023-01-10T17:25:31.267Z,4.16
2023-01-10T17:27:58.072Z,4.16
2023-01-10T17:30:24.898Z,4.19
2023-01-10T17:32:51.742Z,4.20
2023-01-10T17:35:18.733Z,4.20
2023-01-10T17:37:50.393Z,4.25
2023-01-10T17:40:17.410Z,4.20
2023-01-10T17:42:45.200Z,4.21
2023-01-10T17:45:11.986Z,4.23
2023-01-10T17:47:38.778Z,4.26
2023-01-10T17:50:05.689Z,4.21
2023-01-10T17:52:32.474Z,4.19
2023-01-10T17:54:59.674Z,4.15
2023-01-10T17:57:26.548Z,4.16
2023-01-10T17:59:53.395Z,4.14
2023-01-10T18:02:20.545Z,4.11
2023-01-10T18:04:47.494Z,4.14
2023-01-10T18:07:14.374Z,4.05
2023-01-10T18:09:41.200Z,4.07
2023-01-10T18:12:08.265Z,4.05
2023-01-10T18:14:37.967Z,4.05
2023-01-10T18:17:07.757Z,4.03
2023-01-10T18:19:35.057Z,4.05
2023-01-10T18:22:22.940Z,4.03
2023-01-10T18:24:52.600Z,4.02
2023-01-10T18:27:19.564Z,4.02
2023-01-10T18:29:46.343Z,4.03
2023-01-10T18:32:13.140Z,4.03
2023-01-10T18:34:39.942Z,4.01
2023-01-10T18:37:06.774Z,4.02
2023-01-10T18:39:33.624Z,4.01
2023-01-10T18:42:00.399Z,3.97
2023-01-10T18:44:27.422Z,3.86
2023-01-10T18:46:54.270Z,3.81
2023-01-10T18:49:21.084Z,3.71
2023-01-10T18:51:47.891Z,3.60
2023-01-10T18:54:14.940Z,3.48
2023-01-10T18:56:41.781Z,3.42
2023-01-10T18:59:08.567Z,3.30
2023-01-10T19:01:35.410Z,3.22
2023-01-10T19:04:02.362Z,3.14
2023-01-10T19:06:29.564Z,3.10
2023-01-10T19:08:56.407Z,3.05
2023-01-10T19:11:23.359Z,2.93
2023-01-10T19:13:52.153Z,2.87
2023-01-10T19:16:22.415Z,2.72
2023-01-10T19:18:57.256Z,2.56
2023-01-10T19:21:24.729Z,2.41
2023-01-10T19:23:54.020Z,2.26
2023-01-10T19:26:20.960Z,2.19
2023-01-10T19:28:47.866Z,2.09
2023-01-10T19:31:16.303Z,2.06
2023-01-10T19:33:44.220Z,2.02
2023-01-10T19:36:11.268Z,2.05
2023-01-10T19:38:38.060Z,2.02
2023-01-10T19:41:05.047Z,2.03
2023-01-10T19:43:32.225Z,2.06
2023-01-10T19:45:59.066Z,2.10
2023-01-10T19:48:25.940Z,2.10
2023-01-10T19:50:52.804Z,2.19
2023-01-10T19:53:23.925Z,2.24
2023-01-10T19:56:00.566Z,2.34
2023-01-10T19:58:27.382Z,2.37
2023-01-10T20:00:54.205Z,2.38
2023-01-10T20:03:21.044Z,2.44
2023-01-10T20:05:47.824Z,2.48
2023-01-10T20:08:14.663Z,2.56
2023-01-10T20:10:41.451Z,2.55
2023-01-10T20:13:10.253Z,2.53
2023-01-10T20:15:37.270Z,2.52
2023-01-10T20:18:04.286Z,2.45
2023-01-10T20:20:31.292Z,2.35
2023-01-10T20:22:58.063Z,2.32
2023-01-10T20:25:24.824Z,2.30
2023-01-10T20:27:51.671Z,2.21
2023-01-10T20:30:18.827Z,2.14
2023-01-10T20:32:45.664Z,2.10
2023-01-10T20:35:14.041Z,2.05
2023-01-10T20:37:40.854Z,2.07
2023-01-10T20:40:09.832Z,2.00
2023-01-10T20:42:36.645Z,1.92
2023-01-10T20:45:03.927Z,1.89
2023-01-10T20:47:30.792Z,1.88
2023-01-10T20:49:57.622Z,1.89
2023-01-10T20:52:24.494Z,1.85
2023-01-10T20:54:51.504Z,1.88
2023-01-10T20:57:18.366Z,1.90
2023-01-10T20:59:45.161Z,1.89
2023-01-10T21:02:12.045Z,1.99
2023-01-10T21:04:39.985Z,2.00
2023-01-10T21:07:06.958Z,2.06
2023-01-10T21:09:33.844Z,2.08
2023-01-10T21:12:13.924Z,2.09
2023-01-10T21:14:49.182Z,2.09
2023-01-10T21:17:16.209Z,2.13
2023-01-10T21:19:43.041Z,2.23
2023-01-10T21:22:10.039Z,2.29
2023-01-10T21:24:37.463Z,2.31
2023-01-10T21:27:04.323Z,2.35
2023-01-10T21:29:31.196Z,2.37
2023-01-10T21:31:58.050Z,2.39
2023-01-10T21:34:24.907Z,2.39
2023-01-10T21:36:52.228Z,2.36
2023-01-10T21:39:19.123Z,2.36
2023-01-10T21:42:04.246Z,2.34
2023-01-10T21:44:31.083Z,2.37
2023-01-10T21:46:57.982Z,2.36
2023-01-10T21:49:24.909Z,2.37
2023-01-10T21:51:51.745Z,2.33
2023-01-10T21:54:18.591Z,2.41
2023-01-10T21:56:45.528Z,2.42
2023-01-10T21:59:12.353Z,2.40
2023-01-10T22:01:39.241Z,2.35
2023-01-10T22:04:06.136Z,2.45
2023-01-10T22:06:33.079Z,2.45
2023-01-10T22:08:59.957Z,2.48
2023-01-10T22:11:26.827Z,2.42
2023-01-10T22:13:55.064Z,2.42
2023-01-10T22:16:21.969Z,2.38
2023-01-10T22:18:49.879Z,2.31
2023-01-10T22:21:18.901Z,2.33
2023-01-10T22:23:46.075Z,2.27
2023-01-10T22:26:14.434Z,2.26
2023-01-10T22:28:41.565Z,2.23
2023-01-10T22:31:08.472Z,2.23
2023-01-10T22:33:36.369Z,2.18
2023-01-10T22:36:21.383Z,2.18
2023-01-10T22:38:48.598Z,2.19
2023-01-10T22:41:26.910Z,2.18
2023-01-10T22:43:54.107Z,2.23
2023-01-10T22:46:21.014Z,2.20
2023-01-10T22:48:48.008Z,2.29
2023-01-10T22:51:15.480Z,2.29
2023-01-10T22:53:42.433Z,2.35
2023-01-10T22:56:10.790Z,2.28
2023-01-10T22:58:37.827Z,2.33
2023-01-10T23:01:05.647Z,2.29
2023-01-10T23:03:32.745Z,2.28
2023-01-10T23:05:59.680Z,2.28
2023-01-10T23:08:26.864Z,2.33
2023-01-10T23:10:54.442Z,2.33
2023-01-10T23:13:22.227Z,2.36
2023-01-10T23:16:14.791Z,2.37
2023-01-10T23:18:41.712Z,2.43
2023-01-10T23:21:08.683Z,2.41
2023-01-10T23:23:35.569Z,2.43
2023-01-10T23:26:06.523Z,2.37
2023-01-10T23:28:47.513Z,2.37
2023-01-10T23:31:15.505Z,2.37
2023-01-10T23:33:42.267Z,2.34
2023-01-10T23:36:09.769Z,2.23
2023-01-10T23:38:36.541Z,2.17
2023-01-10T23:41:03.559Z,2.08
2023-01-10T23:43:30.363Z,1.94
2023-01-10T23:45:57.550Z,1.82
2023-01-10T23:48:24.476Z,1.66
2023-01-10T23:50:51.407Z,1.47
2023-01-10T23:53:18.318Z,1.41
2023-01-10T23:55:45.108Z,1.16
2023-01-10T23:58:11.932Z,1.16
